Airport ICAO


13:44 UTC

15°C

Light rain


An affordable passengers' Moving Map for your aircraft. Made for the iPad and the iPhone
More information here

LFPG Charles De Gaulle


Paris FRANCE   VFR


METAR LFPG 231330Z 34019KT 6000 -RA SCT009 BKN019 15/13 Q1013 TEMPO 32020G35KT 0h14min

TAF LFPG 231100Z 2312/2418 24020G35KT 9999 BKN020 TX21/2312Z TN08/2406Z TEMPO 2312/2314 28030G45KT 1500 +RA BKN010 BKN012TCU BECMG 2313/2315 32020G40KT PROB30 TEMPO 2315/2318 3000 -RA BECMG 2315/2317 34015G30KT BECMG 2319/2321 33010KT 2h44min





NOTAMS

OPEN